createdAt,value
2022-10-22T00:02:26.222Z,9.70
2022-10-22T00:04:57.821Z,9.70
2022-10-22T00:07:28.954Z,9.70
2022-10-22T00:10:00.428Z,9.70
2022-10-22T00:12:34.348Z,9.70
2022-10-22T00:15:06.075Z,9.70
2022-10-22T00:17:37.504Z,9.70
2022-10-22T00:20:10.651Z,9.70
2022-10-22T00:22:41.849Z,9.70
2022-10-22T00:25:13.233Z,9.60
2022-10-22T00:27:46.831Z,9.60
2022-10-22T00:30:18.702Z,9.70
2022-10-22T00:32:49.724Z,9.70
2022-10-22T00:35:21.332Z,9.70
2022-10-22T00:37:52.468Z,9.70
2022-10-22T00:40:23.949Z,9.70
2022-10-22T00:42:57.688Z,9.70
2022-10-22T00:45:29.856Z,9.70
2022-10-22T00:48:07.548Z,9.70
2022-10-22T00:50:42.783Z,9.60
2022-10-22T00:53:17.568Z,9.60
2022-10-22T00:55:51.685Z,9.60
2022-10-22T00:58:28.444Z,9.60
2022-10-22T01:01:00.358Z,9.50
2022-10-22T01:03:32.331Z,9.50
2022-10-22T01:06:06.917Z,9.40
2022-10-22T01:08:46.091Z,9.30
2022-10-22T01:11:25.323Z,9.20
2022-10-22T01:14:07.556Z,9.20
2022-10-22T01:16:41.110Z,9.30
2022-10-22T01:19:35.776Z,9.30
2022-10-22T01:22:14.542Z,9.30
2022-10-22T01:25:00.288Z,9.30
2022-10-22T01:27:44.954Z,9.30
2022-10-22T01:30:19.362Z,9.30
2022-10-22T01:32:54.687Z,9.30
2022-10-22T01:35:28.336Z,9.20
2022-10-22T01:38:06.002Z,9.20
2022-10-22T01:40:38.296Z,9.10
2022-10-22T01:43:13.315Z,9.00
2022-10-22T01:45:51.915Z,9.00
2022-10-22T01:48:37.239Z,9.00
2022-10-22T01:51:28.523Z,9.10
2022-10-22T01:54:05.696Z,9.10
2022-10-22T01:56:57.883Z,9.10
2022-10-22T01:59:42.234Z,9.20
2022-10-22T02:02:27.499Z,9.10
2022-10-22T02:05:03.701Z,9.10
2022-10-22T02:07:39.079Z,9.10
2022-10-22T02:10:14.023Z,9.10
2022-10-22T02:12:47.855Z,9.10
2022-10-22T02:15:21.831Z,9.10
2022-10-22T02:17:59.336Z,9.20
2022-10-22T02:20:33.381Z,9.20
2022-10-22T02:23:05.227Z,9.20
2022-10-22T02:25:39.722Z,9.20
2022-10-22T02:28:18.142Z,9.30
2022-10-22T02:30:55.081Z,9.30
2022-10-22T02:33:32.130Z,9.30
2022-10-22T02:36:04.798Z,9.30
2022-10-22T02:38:37.491Z,9.30
2022-10-22T02:41:09.430Z,9.30
2022-10-22T02:43:45.479Z,9.30
2022-10-22T02:46:17.029Z,9.30
2022-10-22T02:48:50.926Z,9.20
2022-10-22T02:51:22.413Z,9.20
2022-10-22T02:53:53.472Z,9.20
2022-10-22T02:56:24.940Z,9.20
2022-10-22T02:58:55.980Z,9.20
2022-10-22T03:01:27.636Z,9.20
2022-10-22T03:04:01.337Z,9.10
2022-10-22T03:06:32.828Z,9.10
2022-10-22T03:09:04.002Z,9.00
2022-10-22T03:11:35.460Z,9.00
2022-10-22T03:14:06.501Z,8.90
2022-10-22T03:16:38.140Z,8.90
2022-10-22T03:19:11.942Z,8.90
2022-10-22T03:21:47.575Z,8.80
2022-10-22T03:24:21.801Z,8.70
2022-10-22T03:26:54.710Z,8.60
2022-10-22T03:29:28.401Z,8.50
2022-10-22T03:31:59.792Z,8.60
2022-10-22T03:34:33.593Z,8.60
